sensor_id;sensor_type;location;lat;lon;timestamp;P1;durP1;ratioP1;P2;durP2;ratioP2
2390;SDS011;22957;50.824;4.360;2022-11-15T00:02:15;15.90;;;11.63;;
2390;SDS011;22957;50.824;4.360;2022-11-15T00:04:41;17.43;;;11.70;;
2390;SDS011;22957;50.824;4.360;2022-11-15T00:07:06;19.43;;;11.93;;
2390;SDS011;22957;50.824;4.360;2022-11-15T00:09:32;20.30;;;12.60;;
2390;SDS011;22957;50.824;4.360;2022-11-15T00:11:57;17.53;;;12.17;;
2390;SDS011;22957;50.824;4.360;2022-11-15T00:14:23;14.67;;;11.97;;
2390;SDS011;22957;50.824;4.360;2022-11-15T00:16:49;20.67;;;14.23;;
2390;SDS011;22957;50.824;4.360;2022-11-15T00:19:15;16.27;;;12.20;;
2390;SDS011;22957;50.824;4.360;2022-11-15T00:21:40;19.30;;;12.70;;
2390;SDS011;22957;50.824;4.360;2022-11-15T00:24:06;22.60;;;11.80;;
2390;SDS011;22957;50.824;4.360;2022-11-15T00:26:32;17.03;;;11.60;;
2390;SDS011;22957;50.824;4.360;2022-11-15T00:28:58;17.70;;;11.80;;
2390;SDS011;22957;50.824;4.360;2022-11-15T00:31:24;17.50;;;12.90;;
2390;SDS011;22957;50.824;4.360;2022-11-15T00:33:49;13.63;;;11.03;;
2390;SDS011;22957;50.824;4.360;2022-11-15T00:36:15;23.17;;;12.50;;
2390;SDS011;22957;50.824;4.360;2022-11-15T00:38:41;17.93;;;12.63;;
2390;SDS011;22957;50.824;4.360;2022-11-15T00:41:06;18.53;;;12.70;;
2390;SDS011;22957;50.824;4.360;2022-11-15T00:43:33;20.10;;;11.90;;
2390;SDS011;22957;50.824;4.360;2022-11-15T00:45:59;15.80;;;12.00;;
2390;SDS011;22957;50.824;4.360;2022-11-15T00:48:25;20.93;;;13.10;;
2390;SDS011;22957;50.824;4.360;2022-11-15T00:50:50;21.60;;;13.47;;
2390;SDS011;22957;50.824;4.360;2022-11-15T00:53:16;22.03;;;12.53;;
2390;SDS011;22957;50.824;4.360;2022-11-15T00:55:42;19.37;;;12.80;;
2390;SDS011;22957;50.824;4.360;2022-11-15T00:58:08;22.53;;;15.13;;
2390;SDS011;22957;50.824;4.360;2022-11-15T01:00:34;23.33;;;15.27;;
2390;SDS011;22957;50.824;4.360;2022-11-15T01:03:00;19.80;;;14.80;;
2390;SDS011;22957;50.824;4.360;2022-11-15T01:05:26;25.03;;;14.10;;
2390;SDS011;22957;50.824;4.360;2022-11-15T01:07:53;24.87;;;16.27;;
2390;SDS011;22957;50.824;4.360;2022-11-15T01:10:19;18.30;;;12.10;;
2390;SDS011;22957;50.824;4.360;2022-11-15T01:12:45;23.43;;;15.07;;
2390;SDS011;22957;50.824;4.360;2022-11-15T01:15:11;23.17;;;16.03;;
2390;SDS011;22957;50.824;4.360;2022-11-15T01:17:37;27.20;;;15.20;;
2390;SDS011;22957;50.824;4.360;2022-11-15T01:20:03;21.07;;;14.67;;
2390;SDS011;22957;50.824;4.360;2022-11-15T01:22:29;28.37;;;16.60;;
2390;SDS011;22957;50.824;4.360;2022-11-15T01:24:55;18.40;;;14.00;;
2390;SDS011;22957;50.824;4.360;2022-11-15T01:27:21;22.83;;;13.53;;
2390;SDS011;22957;50.824;4.360;2022-11-15T01:29:47;26.20;;;14.67;;
2390;SDS011;22957;50.824;4.360;2022-11-15T01:32:12;22.60;;;14.43;;
2390;SDS011;22957;50.824;4.360;2022-11-15T01:34:38;17.60;;;12.97;;
2390;SDS011;22957;50.824;4.360;2022-11-15T01:37:04;20.27;;;13.23;;
2390;SDS011;22957;50.824;4.360;2022-11-15T01:39:29;17.87;;;10.63;;
2390;SDS011;22957;50.824;4.360;2022-11-15T01:41:55;17.57;;;12.90;;
2390;SDS011;22957;50.824;4.360;2022-11-15T01:46:55;16.77;;;12.00;;
2390;SDS011;22957;50.824;4.360;2022-11-15T01:49:23;16.57;;;11.93;;
2390;SDS011;22957;50.824;4.360;2022-11-15T01:51:50;18.83;;;11.30;;
2390;SDS011;22957;50.824;4.360;2022-11-15T01:54:17;14.27;;;9.80;;
2390;SDS011;22957;50.824;4.360;2022-11-15T01:56:52;19.23;;;12.10;;
2390;SDS011;22957;50.824;4.360;2022-11-15T01:59:22;15.10;;;10.33;;
2390;SDS011;22957;50.824;4.360;2022-11-15T02:01:48;14.40;;;10.10;;
2390;SDS011;22957;50.824;4.360;2022-11-15T02:07:03;17.30;;;9.83;;
2390;SDS011;22957;50.824;4.360;2022-11-15T02:09:31;23.33;;;11.90;;
2390;SDS011;22957;50.824;4.360;2022-11-15T02:11:57;14.20;;;10.30;;
2390;SDS011;22957;50.824;4.360;2022-11-15T02:14:24;17.20;;;10.83;;
2390;SDS011;22957;50.824;4.360;2022-11-15T02:25:14;13.43;;;9.60;;
2390;SDS011;22957;50.824;4.360;2022-11-15T02:30:35;18.63;;;12.60;;
2390;SDS011;22957;50.824;4.360;2022-11-15T02:33:26;16.13;;;11.07;;
2390;SDS011;22957;50.824;4.360;2022-11-15T02:38:40;10.50;;;8.60;;
2390;SDS011;22957;50.824;4.360;2022-11-15T02:41:30;17.60;;;10.60;;
2390;SDS011;22957;50.824;4.360;2022-11-15T02:46:51;12.60;;;9.00;;
2390;SDS011;22957;50.824;4.360;2022-11-15T02:49:48;17.43;;;10.77;;
2390;SDS011;22957;50.824;4.360;2022-11-15T02:52:22;14.90;;;9.73;;
2390;SDS011;22957;50.824;4.360;2022-11-15T02:54:54;18.10;;;11.80;;
2390;SDS011;22957;50.824;4.360;2022-11-15T02:57:32;14.60;;;10.23;;
2390;SDS011;22957;50.824;4.360;2022-11-15T03:00:15;15.20;;;9.30;;
2390;SDS011;22957;50.824;4.360;2022-11-15T03:11:13;12.93;;;8.67;;
2390;SDS011;22957;50.824;4.360;2022-11-15T03:16:42;13.80;;;7.60;;
2390;SDS011;22957;50.824;4.360;2022-11-15T03:22:03;13.40;;;8.13;;
2390;SDS011;22957;50.824;4.360;2022-11-15T03:24:33;13.47;;;7.80;;
2390;SDS011;22957;50.824;4.360;2022-11-15T03:27:02;9.63;;;6.60;;
2390;SDS011;22957;50.824;4.360;2022-11-15T03:29:42;12.70;;;6.50;;
2390;SDS011;22957;50.824;4.360;2022-11-15T03:32:13;8.30;;;5.77;;
2390;SDS011;22957;50.824;4.360;2022-11-15T03:34:44;12.43;;;5.73;;
2390;SDS011;22957;50.824;4.360;2022-11-15T03:37:16;13.70;;;6.93;;
2390;SDS011;22957;50.824;4.360;2022-11-15T03:39:44;9.73;;;6.03;;
2390;SDS011;22957;50.824;4.360;2022-11-15T03:42:20;7.23;;;6.10;;
2390;SDS011;22957;50.824;4.360;2022-11-15T03:47:49;10.43;;;6.43;;
2390;SDS011;22957;50.824;4.360;2022-11-15T03:50:20;9.80;;;5.00;;
2390;SDS011;22957;50.824;4.360;2022-11-15T03:52:48;10.77;;;5.33;;
2390;SDS011;22957;50.824;4.360;2022-11-15T03:55:19;7.73;;;5.37;;
2390;SDS011;22957;50.824;4.360;2022-11-15T03:57:46;10.23;;;5.37;;
2390;SDS011;22957;50.824;4.360;2022-11-15T04:00:15;11.93;;;5.90;;
2390;SDS011;22957;50.824;4.360;2022-11-15T04:02:41;9.80;;;4.97;;
2390;SDS011;22957;50.824;4.360;2022-11-15T04:05:07;9.50;;;5.03;;
2390;SDS011;22957;50.824;4.360;2022-11-15T04:07:32;5.07;;;3.97;;
2390;SDS011;22957;50.824;4.360;2022-11-15T04:09:58;10.70;;;5.70;;
2390;SDS011;22957;50.824;4.360;2022-11-15T04:12:33;8.33;;;5.43;;
2390;SDS011;22957;50.824;4.360;2022-11-15T04:15:02;11.63;;;5.60;;
2390;SDS011;22957;50.824;4.360;2022-11-15T04:17:34;8.70;;;5.10;;
2390;SDS011;22957;50.824;4.360;2022-11-15T04:20:05;9.67;;;4.00;;
2390;SDS011;22957;50.824;4.360;2022-11-15T04:23:13;7.83;;;4.03;;
2390;SDS011;22957;50.824;4.360;2022-11-15T04:26:01;8.80;;;4.53;;
2390;SDS011;22957;50.824;4.360;2022-11-15T04:28:28;10.67;;;4.33;;
2390;SDS011;22957;50.824;4.360;2022-11-15T04:30:54;7.60;;;5.13;;
2390;SDS011;22957;50.824;4.360;2022-11-15T04:33:19;6.47;;;4.30;;
2390;SDS011;22957;50.824;4.360;2022-11-15T04:35:46;9.67;;;4.17;;
2390;SDS011;22957;50.824;4.360;2022-11-15T04:38:31;5.83;;;3.57;;
2390;SDS011;22957;50.824;4.360;2022-11-15T04:40:58;8.80;;;4.17;;
2390;SDS011;22957;50.824;4.360;2022-11-15T04:43:23;8.03;;;4.27;;
2390;SDS011;22957;50.824;4.360;2022-11-15T04:45:50;15.80;;;4.93;;
2390;SDS011;22957;50.824;4.360;2022-11-15T04:48:15;5.97;;;3.63;;
2390;SDS011;22957;50.824;4.360;2022-11-15T04:50:41;7.03;;;4.10;;
2390;SDS011;22957;50.824;4.360;2022-11-15T04:53:07;5.20;;;3.53;;
2390;SDS011;22957;50.824;4.360;2022-11-15T04:55:32;11.30;;;4.20;;
2390;SDS011;22957;50.824;4.360;2022-11-15T04:57:59;4.23;;;3.70;;
2390;SDS011;22957;50.824;4.360;2022-11-15T05:00:26;4.63;;;3.47;;
2390;SDS011;22957;50.824;4.360;2022-11-15T05:02:53;7.73;;;3.07;;
2390;SDS011;22957;50.824;4.360;2022-11-15T05:05:37;5.93;;;3.03;;
2390;SDS011;22957;50.824;4.360;2022-11-15T05:08:03;4.20;;;2.40;;
2390;SDS011;22957;50.824;4.360;2022-11-15T05:10:30;5.67;;;3.20;;
2390;SDS011;22957;50.824;4.360;2022-11-15T05:12:55;4.90;;;3.07;;
2390;SDS011;22957;50.824;4.360;2022-11-15T05:15:21;7.27;;;2.90;;
2390;SDS011;22957;50.824;4.360;2022-11-15T05:17:47;6.90;;;3.40;;
2390;SDS011;22957;50.824;4.360;2022-11-15T05:20:14;4.77;;;3.00;;
2390;SDS011;22957;50.824;4.360;2022-11-15T05:22:40;3.93;;;2.97;;
2390;SDS011;22957;50.824;4.360;2022-11-15T05:25:06;6.80;;;3.00;;
2390;SDS011;22957;50.824;4.360;2022-11-15T05:27:32;4.87;;;2.33;;
2390;SDS011;22957;50.824;4.360;2022-11-15T05:29:59;3.10;;;2.53;;
2390;SDS011;22957;50.824;4.360;2022-11-15T05:32:24;4.73;;;2.40;;
2390;SDS011;22957;50.824;4.360;2022-11-15T05:34:51;5.87;;;2.40;;
2390;SDS011;22957;50.824;4.360;2022-11-15T05:37:17;7.83;;;2.13;;
2390;SDS011;22957;50.824;4.360;2022-11-15T05:39:43;2.80;;;2.47;;
2390;SDS011;22957;50.824;4.360;2022-11-15T05:42:15;4.23;;;2.63;;
2390;SDS011;22957;50.824;4.360;2022-11-15T05:44:44;6.63;;;2.73;;
2390;SDS011;22957;50.824;4.360;2022-11-15T05:47:15;3.90;;;2.23;;
2390;SDS011;22957;50.824;4.360;2022-11-15T05:49:44;11.13;;;2.50;;
2390;SDS011;22957;50.824;4.360;2022-11-15T05:52:12;6.23;;;2.20;;
2390;SDS011;22957;50.824;4.360;2022-11-15T05:54:41;3.50;;;2.33;;
2390;SDS011;22957;50.824;4.360;2022-11-15T05:57:08;7.23;;;2.73;;
2390;SDS011;22957;50.824;4.360;2022-11-15T05:59:34;9.40;;;2.53;;
2390;SDS011;22957;50.824;4.360;2022-11-15T06:02:00;4.60;;;2.10;;
2390;SDS011;22957;50.824;4.360;2022-11-15T06:04:26;9.43;;;2.90;;
2390;SDS011;22957;50.824;4.360;2022-11-15T06:06:52;8.23;;;3.80;;
2390;SDS011;22957;50.824;4.360;2022-11-15T06:09:17;7.60;;;2.70;;
2390;SDS011;22957;50.824;4.360;2022-11-15T06:11:43;13.33;;;2.63;;
2390;SDS011;22957;50.824;4.360;2022-11-15T06:14:09;15.17;;;2.97;;
2390;SDS011;22957;50.824;4.360;2022-11-15T06:16:34;3.23;;;1.80;;
2390;SDS011;22957;50.824;4.360;2022-11-15T06:19:00;8.93;;;3.20;;
2390;SDS011;22957;50.824;4.360;2022-11-15T06:21:26;6.80;;;2.47;;
2390;SDS011;22957;50.824;4.360;2022-11-15T06:23:53;6.10;;;2.20;;
2390;SDS011;22957;50.824;4.360;2022-11-15T06:26:18;9.90;;;2.30;;
2390;SDS011;22957;50.824;4.360;2022-11-15T06:28:44;10.00;;;1.77;;
2390;SDS011;22957;50.824;4.360;2022-11-15T06:31:10;6.33;;;2.07;;
2390;SDS011;22957;50.824;4.360;2022-11-15T06:33:37;5.57;;;2.57;;
2390;SDS011;22957;50.824;4.360;2022-11-15T06:36:06;6.87;;;2.63;;
2390;SDS011;22957;50.824;4.360;2022-11-15T06:38:34;6.27;;;2.50;;
2390;SDS011;22957;50.824;4.360;2022-11-15T06:41:01;5.50;;;1.90;;
2390;SDS011;22957;50.824;4.360;2022-11-15T06:43:27;5.43;;;2.50;;
2390;SDS011;22957;50.824;4.360;2022-11-15T06:45:53;8.97;;;2.80;;
2390;SDS011;22957;50.824;4.360;2022-11-15T06:48:18;4.83;;;2.30;;
2390;SDS011;22957;50.824;4.360;2022-11-15T06:50:49;7.23;;;2.50;;
2390;SDS011;22957;50.824;4.360;2022-11-15T06:53:16;7.43;;;2.90;;
2390;SDS011;22957;50.824;4.360;2022-11-15T06:55:42;4.80;;;2.50;;
2390;SDS011;22957;50.824;4.360;2022-11-15T06:58:08;2.80;;;1.87;;
2390;SDS011;22957;50.824;4.360;2022-11-15T07:00:34;7.00;;;2.40;;
2390;SDS011;22957;50.824;4.360;2022-11-15T07:03:00;11.30;;;2.10;;
2390;SDS011;22957;50.824;4.360;2022-11-15T07:05:26;5.60;;;2.37;;
2390;SDS011;22957;50.824;4.360;2022-11-15T07:07:55;2.70;;;1.87;;
2390;SDS011;22957;50.824;4.360;2022-11-15T07:10:22;7.47;;;2.30;;
2390;SDS011;22957;50.824;4.360;2022-11-15T07:12:52;17.30;;;2.37;;
2390;SDS011;22957;50.824;4.360;2022-11-15T07:15:20;5.80;;;2.57;;
2390;SDS011;22957;50.824;4.360;2022-11-15T07:17:47;8.07;;;2.10;;
2390;SDS011;22957;50.824;4.360;2022-11-15T07:20:13;6.67;;;2.20;;
2390;SDS011;22957;50.824;4.360;2022-11-15T07:22:42;8.33;;;2.30;;
2390;SDS011;22957;50.824;4.360;2022-11-15T07:25:10;2.30;;;1.90;;
2390;SDS011;22957;50.824;4.360;2022-11-15T07:27:36;6.90;;;2.60;;
2390;SDS011;22957;50.824;4.360;2022-11-15T07:30:02;3.87;;;2.80;;
2390;SDS011;22957;50.824;4.360;2022-11-15T07:32:28;6.87;;;2.17;;
2390;SDS011;22957;50.824;4.360;2022-11-15T07:34:54;4.50;;;2.07;;
2390;SDS011;22957;50.824;4.360;2022-11-15T07:37:19;4.93;;;3.10;;
2390;SDS011;22957;50.824;4.360;2022-11-15T07:39:45;7.57;;;2.60;;
2390;SDS011;22957;50.824;4.360;2022-11-15T07:42:11;7.17;;;1.97;;
2390;SDS011;22957;50.824;4.360;2022-11-15T07:44:55;6.13;;;2.10;;
2390;SDS011;22957;50.824;4.360;2022-11-15T07:47:21;8.50;;;3.10;;
2390;SDS011;22957;50.824;4.360;2022-11-15T07:49:47;5.73;;;2.00;;
2390;SDS011;22957;50.824;4.360;2022-11-15T07:52:13;9.53;;;2.47;;
2390;SDS011;22957;50.824;4.360;2022-11-15T07:54:39;4.57;;;2.50;;
2390;SDS011;22957;50.824;4.360;2022-11-15T07:57:04;5.83;;;2.07;;
2390;SDS011;22957;50.824;4.360;2022-11-15T07:59:32;5.87;;;2.40;;
2390;SDS011;22957;50.824;4.360;2022-11-15T08:01:59;7.57;;;2.30;;
2390;SDS011;22957;50.824;4.360;2022-11-15T08:04:25;7.40;;;2.20;;
2390;SDS011;22957;50.824;4.360;2022-11-15T08:06:51;5.83;;;2.20;;
2390;SDS011;22957;50.824;4.360;2022-11-15T08:09:16;6.53;;;2.70;;
2390;SDS011;22957;50.824;4.360;2022-11-15T08:11:42;6.03;;;2.00;;
2390;SDS011;22957;50.824;4.360;2022-11-15T08:14:08;8.47;;;1.73;;
2390;SDS011;22957;50.824;4.360;2022-11-15T08:16:33;4.60;;;1.77;;
2390;SDS011;22957;50.824;4.360;2022-11-15T08:18:59;4.37;;;2.27;;
2390;SDS011;22957;50.824;4.360;2022-11-15T08:21:25;4.80;;;1.60;;
2390;SDS011;22957;50.824;4.360;2022-11-15T08:23:50;4.33;;;1.93;;
2390;SDS011;22957;50.824;4.360;2022-11-15T08:26:16;3.10;;;1.90;;
2390;SDS011;22957;50.824;4.360;2022-11-15T08:28:43;5.50;;;2.03;;
2390;SDS011;22957;50.824;4.360;2022-11-15T08:31:15;7.73;;;2.00;;
2390;SDS011;22957;50.824;4.360;2022-11-15T08:33:42;2.60;;;1.83;;
2390;SDS011;22957;50.824;4.360;2022-11-15T08:36:11;4.73;;;1.50;;
2390;SDS011;22957;50.824;4.360;2022-11-15T08:38:39;4.90;;;1.27;;
2390;SDS011;22957;50.824;4.360;2022-11-15T08:41:05;4.30;;;1.47;;
2390;SDS011;22957;50.824;4.360;2022-11-15T08:43:31;7.23;;;1.40;;
2390;SDS011;22957;50.824;4.360;2022-11-15T08:45:57;11.97;;;1.67;;
2390;SDS011;22957;50.824;4.360;2022-11-15T08:48:23;5.47;;;1.60;;
2390;SDS011;22957;50.824;4.360;2022-11-15T08:50:53;9.03;;;1.20;;
2390;SDS011;22957;50.824;4.360;2022-11-15T08:53:22;4.63;;;1.40;;
2390;SDS011;22957;50.824;4.360;2022-11-15T08:55:48;2.97;;;1.37;;
2390;SDS011;22957;50.824;4.360;2022-11-15T08:58:13;6.93;;;1.90;;
2390;SDS011;22957;50.824;4.360;2022-11-15T09:00:39;4.70;;;1.60;;
2390;SDS011;22957;50.824;4.360;2022-11-15T09:03:05;3.27;;;1.70;;
2390;SDS011;22957;50.824;4.360;2022-11-15T09:05:32;4.27;;;1.70;;
2390;SDS011;22957;50.824;4.360;2022-11-15T09:08:00;9.07;;;1.90;;
2390;SDS011;22957;50.824;4.360;2022-11-15T09:10:25;8.10;;;1.77;;
2390;SDS011;22957;50.824;4.360;2022-11-15T09:12:51;6.07;;;1.40;;
2390;SDS011;22957;50.824;4.360;2022-11-15T09:15:17;6.80;;;1.20;;
2390;SDS011;22957;50.824;4.360;2022-11-15T09:17:44;6.40;;;1.30;;
2390;SDS011;22957;50.824;4.360;2022-11-15T09:20:10;7.30;;;1.60;;
2390;SDS011;22957;50.824;4.360;2022-11-15T09:22:37;7.00;;;1.93;;
2390;SDS011;22957;50.824;4.360;2022-11-15T09:25:03;5.10;;;1.40;;
2390;SDS011;22957;50.824;4.360;2022-11-15T09:27:30;3.90;;;1.30;;
2390;SDS011;22957;50.824;4.360;2022-11-15T09:29:59;4.70;;;1.10;;
2390;SDS011;22957;50.824;4.360;2022-11-15T09:32:27;7.37;;;1.70;;
2390;SDS011;22957;50.824;4.360;2022-11-15T09:34:55;7.53;;;1.20;;
2390;SDS011;22957;50.824;4.360;2022-11-15T09:37:20;3.37;;;1.50;;
2390;SDS011;22957;50.824;4.360;2022-11-15T09:39:46;5.60;;;1.10;;
2390;SDS011;22957;50.824;4.360;2022-11-15T09:42:22;5.87;;;1.50;;
2390;SDS011;22957;50.824;4.360;2022-11-15T09:47:55;6.10;;;1.43;;
2390;SDS011;22957;50.824;4.360;2022-11-15T09:50:34;4.87;;;1.10;;
2390;SDS011;22957;50.824;4.360;2022-11-15T09:53:09;5.10;;;1.03;;
2390;SDS011;22957;50.824;4.360;2022-11-15T09:55:42;3.57;;;1.13;;
2390;SDS011;22957;50.824;4.360;2022-11-15T09:58:26;4.80;;;1.23;;
2390;SDS011;22957;50.824;4.360;2022-11-15T10:00:55;7.33;;;1.30;;
2390;SDS011;22957;50.824;4.360;2022-11-15T10:03:34;6.03;;;1.30;;
2390;SDS011;22957;50.824;4.360;2022-11-15T10:06:05;7.67;;;1.30;;
2390;SDS011;22957;50.824;4.360;2022-11-15T10:11:41;5.13;;;1.37;;
2390;SDS011;22957;50.824;4.360;2022-11-15T10:14:19;4.20;;;1.13;;
2390;SDS011;22957;50.824;4.360;2022-11-15T10:17:02;4.13;;;1.50;;
2390;SDS011;22957;50.824;4.360;2022-11-15T10:19:39;5.37;;;1.50;;
2390;SDS011;22957;50.824;4.360;2022-11-15T10:22:24;8.40;;;1.30;;
2390;SDS011;22957;50.824;4.360;2022-11-15T10:27:34;5.70;;;1.30;;
2390;SDS011;22957;50.824;4.360;2022-11-15T10:29:59;5.47;;;1.40;;
2390;SDS011;22957;50.824;4.360;2022-11-15T10:32:25;6.57;;;1.20;;
2390;SDS011;22957;50.824;4.360;2022-11-15T10:34:51;13.20;;;1.60;;
2390;SDS011;22957;50.824;4.360;2022-11-15T10:37:28;4.77;;;1.40;;
2390;SDS011;22957;50.824;4.360;2022-11-15T10:40:03;6.60;;;1.40;;
2390;SDS011;22957;50.824;4.360;2022-11-15T10:42:40;5.33;;;1.40;;
2390;SDS011;22957;50.824;4.360;2022-11-15T10:48:22;6.80;;;1.50;;
2390;SDS011;22957;50.824;4.360;2022-11-15T10:50:51;3.50;;;1.10;;
2390;SDS011;22957;50.824;4.360;2022-11-15T10:55:49;5.23;;;1.10;;
2390;SDS011;22957;50.824;4.360;2022-11-15T11:00:52;4.67;;;1.00;;
2390;SDS011;22957;50.824;4.360;2022-11-15T11:03:28;5.67;;;1.27;;
2390;SDS011;22957;50.824;4.360;2022-11-15T11:06:07;6.83;;;1.30;;
2390;SDS011;22957;50.824;4.360;2022-11-15T11:08:34;3.00;;;1.10;;
2390;SDS011;22957;50.824;4.360;2022-11-15T11:11:01;11.90;;;1.23;;
2390;SDS011;22957;50.824;4.360;2022-11-15T11:13:29;7.23;;;1.47;;
2390;SDS011;22957;50.824;4.360;2022-11-15T11:16:26;6.40;;;1.30;;
2390;SDS011;22957;50.824;4.360;2022-11-15T11:22:20;13.43;;;1.40;;
2390;SDS011;22957;50.824;4.360;2022-11-15T11:25:26;5.67;;;1.20;;
2390;SDS011;22957;50.824;4.360;2022-11-15T11:28:20;8.23;;;0.90;;
2390;SDS011;22957;50.824;4.360;2022-11-15T11:33:31;5.57;;;1.30;;
2390;SDS011;22957;50.824;4.360;2022-11-15T11:36:40;6.70;;;1.60;;
2390;SDS011;22957;50.824;4.360;2022-11-15T11:39:34;9.60;;;1.20;;
2390;SDS011;22957;50.824;4.360;2022-11-15T11:42:37;3.70;;;1.20;;
2390;SDS011;22957;50.824;4.360;2022-11-15T11:47:37;4.20;;;1.00;;
2390;SDS011;22957;50.824;4.360;2022-11-15T11:50:11;2.90;;;0.80;;
2390;SDS011;22957;50.824;4.360;2022-11-15T11:52:44;5.77;;;1.40;;
2390;SDS011;22957;50.824;4.360;2022-11-15T11:55:24;6.20;;;1.10;;
2390;SDS011;22957;50.824;4.360;2022-11-15T12:00:53;3.97;;;1.00;;
2390;SDS011;22957;50.824;4.360;2022-11-15T12:03:41;2.40;;;0.83;;
2390;SDS011;22957;50.824;4.360;2022-11-15T12:09:33;3.43;;;1.00;;
2390;SDS011;22957;50.824;4.360;2022-11-15T12:15:31;13.10;;;0.93;;
2390;SDS011;22957;50.824;4.360;2022-11-15T12:17:55;3.10;;;1.10;;
2390;SDS011;22957;50.824;4.360;2022-11-15T12:20:35;3.00;;;1.00;;
2390;SDS011;22957;50.824;4.360;2022-11-15T12:23:13;7.20;;;1.13;;
2390;SDS011;22957;50.824;4.360;2022-11-15T12:28:37;7.83;;;1.10;;
2390;SDS011;22957;50.824;4.360;2022-11-15T12:31:11;3.90;;;1.13;;
2390;SDS011;22957;50.824;4.360;2022-11-15T12:33:43;10.63;;;1.67;;
2390;SDS011;22957;50.824;4.360;2022-11-15T12:38:59;2.93;;;0.90;;
2390;SDS011;22957;50.824;4.360;2022-11-15T12:41:38;4.33;;;1.13;;
2390;SDS011;22957;50.824;4.360;2022-11-15T13:17:42;3.93;;;1.10;;
2390;SDS011;22957;50.824;4.360;2022-11-15T13:22:46;4.03;;;1.00;;
2390;SDS011;22957;50.824;4.360;2022-11-15T13:27:58;3.07;;;1.10;;
2390;SDS011;22957;50.824;4.360;2022-11-15T13:30:27;3.53;;;1.10;;
2390;SDS011;22957;50.824;4.360;2022-11-15T13:32:55;7.90;;;1.27;;
2390;SDS011;22957;50.824;4.360;2022-11-15T13:35:33;4.10;;;0.80;;
2390;SDS011;22957;50.824;4.360;2022-11-15T13:38:04;3.17;;;0.80;;
2390;SDS011;22957;50.824;4.360;2022-11-15T13:40:48;4.50;;;1.03;;
2390;SDS011;22957;50.824;4.360;2022-11-15T13:43:24;3.03;;;1.00;;
2390;SDS011;22957;50.824;4.360;2022-11-15T13:49:02;4.10;;;0.93;;
2390;SDS011;22957;50.824;4.360;2022-11-15T13:56:51;3.10;;;1.00;;
2390;SDS011;22957;50.824;4.360;2022-11-15T13:59:25;2.70;;;0.90;;
2390;SDS011;22957;50.824;4.360;2022-11-15T14:01:56;2.80;;;1.47;;
2390;SDS011;22957;50.824;4.360;2022-11-15T14:04:28;2.53;;;0.90;;
2390;SDS011;22957;50.824;4.360;2022-11-15T14:06:58;3.03;;;1.53;;
2390;SDS011;22957;50.824;4.360;2022-11-15T14:09:29;2.43;;;1.00;;
2390;SDS011;22957;50.824;4.360;2022-11-15T14:11:58;13.40;;;4.97;;
2390;SDS011;22957;50.824;4.360;2022-11-15T14:14:26;5.90;;;2.43;;
2390;SDS011;22957;50.824;4.360;2022-11-15T14:16:54;4.23;;;1.80;;
2390;SDS011;22957;50.824;4.360;2022-11-15T14:24:36;6.57;;;1.47;;
2390;SDS011;22957;50.824;4.360;2022-11-15T14:29:51;3.73;;;1.40;;
2390;SDS011;22957;50.824;4.360;2022-11-15T14:32:19;3.67;;;1.60;;
2390;SDS011;22957;50.824;4.360;2022-11-15T14:34:47;6.80;;;1.83;;
2390;SDS011;22957;50.824;4.360;2022-11-15T14:37:18;4.47;;;1.93;;
2390;SDS011;22957;50.824;4.360;2022-11-15T14:39:49;1.80;;;1.10;;
2390;SDS011;22957;50.824;4.360;2022-11-15T14:42:22;3.20;;;1.50;;
2390;SDS011;22957;50.824;4.360;2022-11-15T14:44:48;6.00;;;1.40;;
2390;SDS011;22957;50.824;4.360;2022-11-15T14:47:15;8.53;;;1.77;;
2390;SDS011;22957;50.824;4.360;2022-11-15T14:49:44;5.47;;;1.40;;
2390;SDS011;22957;50.824;4.360;2022-11-15T14:52:21;4.90;;;1.77;;
2390;SDS011;22957;50.824;4.360;2022-11-15T14:54:52;3.67;;;1.47;;
2390;SDS011;22957;50.824;4.360;2022-11-15T14:57:18;4.23;;;1.53;;
2390;SDS011;22957;50.824;4.360;2022-11-15T14:59:45;2.33;;;1.10;;
2390;SDS011;22957;50.824;4.360;2022-11-15T15:02:21;2.20;;;1.10;;
2390;SDS011;22957;50.824;4.360;2022-11-15T15:04:49;2.93;;;1.03;;
2390;SDS011;22957;50.824;4.360;2022-11-15T15:07:15;3.33;;;1.50;;
2390;SDS011;22957;50.824;4.360;2022-11-15T15:09:43;2.07;;;1.20;;
2390;SDS011;22957;50.824;4.360;2022-11-15T15:12:22;2.70;;;1.20;;
2390;SDS011;22957;50.824;4.360;2022-11-15T15:14:49;2.60;;;1.67;;
2390;SDS011;22957;50.824;4.360;2022-11-15T15:17:16;3.77;;;1.20;;
2390;SDS011;22957;50.824;4.360;2022-11-15T15:19:43;1.63;;;1.07;;
2390;SDS011;22957;50.824;4.360;2022-11-15T15:22:13;6.67;;;1.10;;
2390;SDS011;22957;50.824;4.360;2022-11-15T15:24:42;3.93;;;1.40;;
2390;SDS011;22957;50.824;4.360;2022-11-15T15:27:09;9.50;;;1.73;;
2390;SDS011;22957;50.824;4.360;2022-11-15T15:29:35;3.97;;;1.77;;
2390;SDS011;22957;50.824;4.360;2022-11-15T15:32:00;1.90;;;1.17;;
2390;SDS011;22957;50.824;4.360;2022-11-15T15:34:27;2.70;;;1.40;;
2390;SDS011;22957;50.824;4.360;2022-11-15T15:39:34;1.80;;;1.10;;
2390;SDS011;22957;50.824;4.360;2022-11-15T15:42:00;3.13;;;1.33;;
2390;SDS011;22957;50.824;4.360;2022-11-15T15:44:25;3.23;;;1.70;;
2390;SDS011;22957;50.824;4.360;2022-11-15T15:46:51;2.17;;;1.53;;
2390;SDS011;22957;50.824;4.360;2022-11-15T15:49:20;2.53;;;1.50;;
2390;SDS011;22957;50.824;4.360;2022-11-15T15:51:46;4.00;;;1.57;;
2390;SDS011;22957;50.824;4.360;2022-11-15T15:54:12;3.57;;;1.43;;
2390;SDS011;22957;50.824;4.360;2022-11-15T15:56:37;3.40;;;1.57;;
2390;SDS011;22957;50.824;4.360;2022-11-15T15:59:03;4.10;;;1.30;;
2390;SDS011;22957;50.824;4.360;2022-11-15T16:01:29;4.17;;;2.13;;
2390;SDS011;22957;50.824;4.360;2022-11-15T16:03:58;1.53;;;1.27;;
2390;SDS011;22957;50.824;4.360;2022-11-15T16:08:55;3.90;;;2.07;;
2390;SDS011;22957;50.824;4.360;2022-11-15T16:11:22;3.30;;;1.70;;
2390;SDS011;22957;50.824;4.360;2022-11-15T16:13:48;8.07;;;2.23;;
2390;SDS011;22957;50.824;4.360;2022-11-15T16:16:14;4.20;;;1.70;;
2390;SDS011;22957;50.824;4.360;2022-11-15T16:18:40;6.53;;;1.97;;
2390;SDS011;22957;50.824;4.360;2022-11-15T16:21:07;2.50;;;1.50;;
2390;SDS011;22957;50.824;4.360;2022-11-15T16:23:33;4.30;;;2.20;;
2390;SDS011;22957;50.824;4.360;2022-11-15T16:25:59;1.70;;;1.40;;
2390;SDS011;22957;50.824;4.360;2022-11-15T16:28:27;4.43;;;1.70;;
2390;SDS011;22957;50.824;4.360;2022-11-15T16:31:11;3.50;;;1.83;;
2390;SDS011;22957;50.824;4.360;2022-11-15T16:33:37;1.70;;;1.50;;
2390;SDS011;22957;50.824;4.360;2022-11-15T16:36:05;2.40;;;1.57;;
2390;SDS011;22957;50.824;4.360;2022-11-15T16:38:37;2.40;;;1.80;;
2390;SDS011;22957;50.824;4.360;2022-11-15T16:41:04;4.67;;;2.00;;
2390;SDS011;22957;50.824;4.360;2022-11-15T16:43:30;2.50;;;1.50;;
2390;SDS011;22957;50.824;4.360;2022-11-15T16:45:56;2.07;;;1.40;;
2390;SDS011;22957;50.824;4.360;2022-11-15T16:48:24;3.10;;;1.67;;
2390;SDS011;22957;50.824;4.360;2022-11-15T16:50:55;2.43;;;1.70;;
2390;SDS011;22957;50.824;4.360;2022-11-15T16:53:24;2.83;;;1.70;;
2390;SDS011;22957;50.824;4.360;2022-11-15T16:55:50;2.77;;;1.73;;
2390;SDS011;22957;50.824;4.360;2022-11-15T16:58:16;2.10;;;1.83;;
2390;SDS011;22957;50.824;4.360;2022-11-15T17:00:42;3.17;;;1.67;;
2390;SDS011;22957;50.824;4.360;2022-11-15T17:03:08;4.03;;;2.23;;
2390;SDS011;22957;50.824;4.360;2022-11-15T17:05:34;4.40;;;2.33;;
2390;SDS011;22957;50.824;4.360;2022-11-15T17:08:00;3.40;;;2.33;;
2390;SDS011;22957;50.824;4.360;2022-11-15T17:10:25;3.03;;;2.20;;
2390;SDS011;22957;50.824;4.360;2022-11-15T17:12:52;2.63;;;2.27;;
2390;SDS011;22957;50.824;4.360;2022-11-15T17:15:20;3.30;;;2.23;;
2390;SDS011;22957;50.824;4.360;2022-11-15T17:17:54;5.13;;;2.20;;
2390;SDS011;22957;50.824;4.360;2022-11-15T17:20:22;2.80;;;2.43;;
2390;SDS011;22957;50.824;4.360;2022-11-15T17:22:49;3.90;;;2.03;;
2390;SDS011;22957;50.824;4.360;2022-11-15T17:25:16;2.60;;;2.00;;
2390;SDS011;22957;50.824;4.360;2022-11-15T17:27:44;4.60;;;2.60;;
2390;SDS011;22957;50.824;4.360;2022-11-15T17:30:11;6.50;;;2.97;;